| time (UTC) | temp F | wind direction | speed knots | gust knots | rain 1hr in | rain 24hr in | rain mn in | humidity % | barometer mb |
| 20260902231603 | 91 | 199 | 2.6 | 7.0 | 0.00 | 0.00 | 0.00 | 56 | 1017.9 |
| 20260902230105 | 91 | 187 | 3.5 | 8.7 | 0.00 | 0.00 | 0.00 | 56 | 1018.0 |
| 20260902224603 | 92 | 176 | 3.5 | 8.7 | 0.00 | 0.00 | 0.00 | 55 | 1018.0 |
| 20260902223106 | 93 | 175 | 3.5 | 7.8 | 0.00 | 0.00 | 0.00 | 55 | 1018.1 |
| 20260902221605 | 92 | 200 | 1.7 | 11.3 | 0.00 | 0.00 | 0.00 | 55 | 1018.1 |
| 20260902220107 | 93 | 204 | 3.5 | 11.3 | 0.00 | 0.00 | 0.00 | 52 | 1018.2 |
| 20260902214600 | 93 | 210 | 3.5 | 11.3 | 0.00 | 0.00 | 0.00 | 51 | 1018.1 |
| 20260902213059 | 93 | 208 | 3.5 | 9.6 | 0.00 | 0.00 | 0.00 | 52 | 1018.2 |
| 20260902211607 | 95 | 165 | 2.6 | 9.6 | 0.00 | 0.00 | 0.00 | 52 | 1018.3 |
| 20260902204602 | 94 | 198 | 2.6 | 8.7 | 0.00 | 0.00 | 0.00 | 52 | 1018.4 |
| 20260902203103 | 94 | 175 | 6.1 | 12.2 | 0.00 | 0.00 | 0.00 | 54 | 1018.5 |
| 20260902201611 | 93 | 207 | 4.3 | 8.7 | 0.00 | 0.00 | 0.00 | 51 | 1018.6 |
| 20260902194606 | 94 | 170 | 2.6 | 8.7 | 0.00 | 0.00 | 0.00 | 48 | 1018.8 |
| 20260902193105 | 93 | 261 | 0.9 | 7.8 | 0.00 | 0.00 | 0.00 | 51 | 1019.1 |
| 20260902191604 | 94 | 0 | 0.9 | 13.0 | 0.00 | 0.00 | 0.00 | 50 | 1019.2 |
| 20260902190100 | 93 | 291 | 2.6 | 9.6 | 0.00 | 0.00 | 0.00 | 50 | 1019.4 |
| 20260902184602 | 93 | 209 | 0.9 | 7.8 | 0.00 | 0.00 | 0.00 | 50 | 1019.6 |
| 20260902183100 | 93 | 242 | 2.6 | 8.7 | 0.00 | 0.00 | 0.00 | 50 | 1019.7 |
| 20260902181603 | 93 | 0 | 1.7 | 11.3 | 0.00 | 0.00 | 0.00 | 49 | 1019.8 |
| 20260902180107 | 93 | 0 | 3.5 | 9.6 | 0.00 | 0.00 | 0.00 | 55 | 1019.8 |
| 20260902174605 | 93 | 203 | 3.5 | 11.3 | 0.00 | 0.00 | 0.00 | 53 | 1020.0 |
| 20260902173102 | 93 | 211 | 0.9 | 12.2 | 0.00 | 0.00 | 0.00 | 52 | 1020.0 |
| 20260902171611 | 92 | 192 | 1.7 | 7.0 | 0.00 | 0.00 | 0.00 | 54 | 1020.2 |
| 20260902170104 | 91 | 274 | 0.9 | 7.0 | 0.00 | 0.00 | 0.00 | 59 | 1020.3 |
| 20260902164604 | 91 | 0 | 0.9 | 10.4 | 0.00 | 0.00 | 0.00 | 59 | 1020.3 |
| 20260902163101 | 91 | 201 | 0.9 | 8.7 | 0.00 | 0.00 | 0.00 | 59 | 1020.4 |
| 20260902161614 | 91 | 241 | 1.7 | 6.1 | 0.00 | 0.00 | 0.00 | 57 | 1020.5 |
| 20260902160117 | 90 | 0 | 1.7 | 6.1 | 0.00 | 0.00 | 0.00 | 62 | 1020.7 |
| 20260902154601 | 90 | 279 | 4.3 | 9.6 | 0.00 | 0.00 | 0.00 | 61 | 1020.9 |
| 20260902153102 | 90 | 326 | 0.9 | 5.2 | 0.00 | 0.00 | 0.00 | 64 | 1020.9 |
| 20260902151606 | 88 | 0 | 0.0 | 3.5 | 0.00 | 0.00 | 0.00 | 67 | 1020.9 |
| 20260902144602 | 86 | 312 | 0.0 | 6.1 | 0.00 | 0.00 | 0.00 | 68 | 1020.9 |
| 20260902143106 | 85 | 282 | 0.9 | 3.5 | 0.00 | 0.00 | 0.00 | 71 | 1020.9 |
| 20260902141601 | 83 | 217 | 0.9 | 5.2 | 0.00 | 0.00 | 0.00 | 74 | 1021.1 |
| 20260902134600 | 80 | 0 | 0.0 | 6.1 | 0.00 | 0.00 | 0.00 | 77 | 1021.0 |
| 20260902133109 | 80 | 0 | 0.0 | 5.2 | 0.00 | 0.00 | 0.00 | 79 | 1021.0 |
| 20260902131602 | 78 | 0 | 0.9 | 3.5 | 0.00 | 0.00 | 0.00 | 82 | 1020.9 |
| 20260902124604 | 76 | 197 | 1.7 | 3.5 | 0.00 | 0.00 | 0.00 | 88 | 1020.9 |
| 20260902123110 | 74 | 0 | 0.0 | 0.0 | 0.00 | 0.00 | 0.00 | 90 | 1020.7 |
| 20260902121606 | 72 | 0 | 0.0 | 0.0 | 0.00 | 0.00 | 0.00 | 92 | 1020.5 |
| 20260902114604 | 71 | 0 | 0.0 | 0.0 | 0.00 | 0.00 | 0.00 | 92 | 1020.2 |
| 20260902113104 | 71 | 0 | 0.0 | 0.0 | 0.00 | 0.00 | 0.00 | 92 | 1020.1 |
| 20260902111607 | 71 | 0 | 0.0 | 0.0 | 0.00 | 0.00 | 0.00 | 92 | 1019.9 |
| 20260902110106 | 71 | 0 | 0.0 | 0.0 | 0.00 | 0.00 | 0.00 | 92 | 1019.9 |
| 20260902104616 | 72 | 0 | 0.0 | 0.0 | 0.00 | 0.00 | 0.00 | 92 | 1019.9 |
| 20260902103101 | 72 | 0 | 0.0 | 0.0 | 0.00 | 0.00 | 0.00 | 92 | 1019.8 |
| 20260902101602 | 72 | 0 | 0.0 | 0.0 | 0.00 | 0.00 | 0.00 | 92 | 1019.8 |
| 20260902094609 | 72 | 0 | 0.0 | 0.0 | 0.00 | 0.00 | 0.00 | 92 | 1019.6 |
| 20260902093105 | 72 | 0 | 0.0 | 0.0 | 0.00 | 0.00 | 0.00 | 92 | 1019.7 |
| 20260902091605 | 72 | 0 | 0.0 | 0.0 | 0.00 | 0.00 | 0.00 | 92 | 1019.6 |
| 20260902090125 | 72 | 0 | 0.0 | 0.0 | 0.00 | 0.00 | 0.00 | 92 | 1019.5 |
| 20260902084606 | 72 | 0 | 0.0 | 0.0 | 0.00 | 0.00 | 0.00 | 92 | 1019.5 |
| 20260902083111 | 73 | 0 | 0.0 | 0.0 | 0.00 | 0.00 | 0.00 | 92 | 1019.2 |
| 20260902081607 | 73 | 0 | 0.0 | 0.0 | 0.00 | 0.00 | 0.00 | 91 | 1019.2 |
| 20260902080115 | 73 | 0 | 0.0 | 0.0 | 0.00 | 0.00 | 0.00 | 91 | 1019.1 |
| 20260902074600 | 73 | 0 | 0.0 | 0.0 | 0.00 | 0.00 | 0.00 | 91 | 1018.9 |
| 20260902073100 | 73 | 0 | 0.0 | 0.0 | 0.00 | 0.00 | 0.00 | 91 | 1019.1 |
| 20260902071603 | 73 | 0 | 0.0 | 0.0 | 0.00 | 0.00 | 0.00 | 91 | 1019.0 |
| 20260902070108 | 73 | 0 | 0.0 | 0.0 | 0.00 | 0.00 | 0.00 | 91 | 1019.0 |
| 20260902064603 | 73 | 0 | 0.0 | 0.0 | 0.00 | 0.00 | 0.00 | 90 | 1018.9 |
| 20260902063106 | 73 | 0 | 0.0 | 0.0 | 0.00 | 0.00 | 0.00 | 90 | 1019.1 |
| 20260902061613 | 74 | 0 | 0.0 | 0.0 | 0.00 | 0.00 | 0.00 | 90 | 1019.1 |
| 20260902060105 | 74 | 0 | 0.0 | 0.0 | 0.00 | 0.00 | 0.00 | 90 | 1019.2 |
| 20260902054609 | 74 | 0 | 0.0 | 0.0 | 0.00 | 0.00 | 0.00 | 90 | 1019.2 |
| 20260902053102 | 74 | 0 | 0.0 | 0.0 | 0.00 | 0.00 | 0.00 | 91 | 1019.1 |
| 20260902051607 | 74 | 0 | 0.0 | 0.0 | 0.00 | 0.00 | 0.00 | 90 | 1019.1 |
| 20260902044605 | 75 | 0 | 0.0 | 0.0 | 0.00 | 0.00 | 0.00 | 91 | 1019.2 |
| 20260902043106 | 75 | 0 | 0.0 | 0.0 | 0.00 | 0.00 | 0.00 | 91 | 1019.1 |
| 20260902041605 | 74 | 0 | 0.0 | 0.0 | 0.00 | 0.00 | 0.00 | 90 | 1019.3 |
| 20260902040106 | 74 | 0 | 0.0 | 0.0 | 0.00 | 0.00 | 0.00 | 90 | 1019.3 |
| 20260902034602 | 75 | 0 | 0.0 | 0.0 | 0.00 | 0.00 | 0.00 | 90 | 1019.3 |
| 20260902033115 | 75 | 0 | 0.0 | 0.0 | 0.00 | 0.00 | 0.00 | 90 | 1019.2 |
| 20260902031603 | 75 | 0 | 0.0 | 0.0 | 0.00 | 0.00 | 0.00 | 89 | 1019.3 |
| 20260902030103 | 76 | 0 | 0.0 | 0.0 | 0.00 | 0.00 | 0.00 | 89 | 1019.2 |
| 20260902024602 | 76 | 0 | 0.0 | 0.0 | 0.00 | 0.00 | 0.00 | 89 | 1019.3 |
| 20260902023106 | 77 | 0 | 0.0 | 0.0 | 0.00 | 0.00 | 0.00 | 89 | 1019.4 |
| 20260902021609 | 77 | 0 | 0.0 | 0.0 | 0.00 | 0.00 | 0.00 | 87 | 1019.3 |
| 20260902020105 | 78 | 0 | 0.0 | 0.0 | 0.00 | 0.00 | 0.00 | 86 | 1019.2 |
| 20260902014603 | 79 | 0 | 0.0 | 0.0 | 0.00 | 0.00 | 0.00 | 83 | 1019.1 |
| 20260902013059 | 80 | 0 | 0.0 | 0.0 | 0.00 | 0.00 | 0.00 | 81 | 1018.9 |
| 20260902011601 | 81 | 0 | 0.0 | 0.0 | 0.00 | 0.00 | 0.00 | 78 | 1018.8 |
| 20260902010105 | 82 | 0 | 0.0 | 0.0 | 0.00 | 0.00 | 0.00 | 75 | 1018.7 |
| 20260902004604 | 83 | 0 | 0.0 | 0.0 | 0.00 | 0.00 | 0.00 | 73 | 1018.6 |
| 20260902003104 | 85 | 0 | 0.0 | 0.0 | 0.00 | 0.00 | 0.00 | 70 | 1018.7 |
| 20260902001603 | 86 | 0 | 0.0 | 0.9 | 0.00 | 0.00 | 0.00 | 66 | 1018.7 |
| 20260902000103 | 88 | 0 | 0.0 | 1.7 | 0.00 | 0.00 | 0.00 | 63 | 1018.8 |
| 20260901234613 | 89 | 202 | 0.9 | 3.5 | 0.00 | 0.00 | 0.00 | 60 | 1018.8 |
| 20260901233110 | 89 | 205 | 1.7 | 7.0 | 0.00 | 0.00 | 0.00 | 58 | 1018.9 |